sensor_id;sensor_type;location;lat;lon;timestamp;P1;durP1;ratioP1;P2;durP2;ratioP2
34872;SDS011;21084;51.098;14.506;2022-08-21T00:00:21;78.82;;;41.78;;
34872;SDS011;21084;51.098;14.506;2022-08-21T00:02:28;79.28;;;39.60;;
34872;SDS011;21084;51.098;14.506;2022-08-21T00:04:34;78.50;;;40.53;;
34872;SDS011;21084;51.098;14.506;2022-08-21T00:06:37;82.60;;;42.15;;
34872;SDS011;21084;51.098;14.506;2022-08-21T00:08:40;84.45;;;42.05;;
34872;SDS011;21084;51.098;14.506;2022-08-21T00:10:44;72.00;;;40.30;;
34872;SDS011;21084;51.098;14.506;2022-08-21T00:12:48;70.57;;;38.80;;
34872;SDS011;21084;51.098;14.506;2022-08-21T00:14:52;79.38;;;41.17;;
34872;SDS011;21084;51.098;14.506;2022-08-21T00:16:59;74.30;;;39.55;;
34872;SDS011;21084;51.098;14.506;2022-08-21T00:19:04;77.07;;;40.67;;
34872;SDS011;21084;51.098;14.506;2022-08-21T00:21:11;81.05;;;43.05;;
34872;SDS011;21084;51.098;14.506;2022-08-21T00:23:15;88.85;;;44.38;;
34872;SDS011;21084;51.098;14.506;2022-08-21T00:25:18;84.75;;;42.55;;
34872;SDS011;21084;51.098;14.506;2022-08-21T00:27:27;80.63;;;42.08;;
34872;SDS011;21084;51.098;14.506;2022-08-21T00:29:30;83.68;;;42.72;;
34872;SDS011;21084;51.098;14.506;2022-08-21T00:31:34;81.57;;;41.60;;
34872;SDS011;21084;51.098;14.506;2022-08-21T00:33:37;80.93;;;42.03;;
34872;SDS011;21084;51.098;14.506;2022-08-21T00:35:41;83.47;;;43.55;;
34872;SDS011;21084;51.098;14.506;2022-08-21T00:37:48;76.32;;;41.92;;
34872;SDS011;21084;51.098;14.506;2022-08-21T00:39:53;77.38;;;42.67;;
34872;SDS011;21084;51.098;14.506;2022-08-21T00:41:56;77.03;;;41.97;;
34872;SDS011;21084;51.098;14.506;2022-08-21T00:44:00;82.70;;;43.03;;
34872;SDS011;21084;51.098;14.506;2022-08-21T00:46:05;83.45;;;42.60;;
34872;SDS011;21084;51.098;14.506;2022-08-21T00:48:08;75.95;;;40.05;;
34872;SDS011;21084;51.098;14.506;2022-08-21T00:50:12;77.43;;;40.85;;
34872;SDS011;21084;51.098;14.506;2022-08-21T00:52:24;78.47;;;40.97;;
34872;SDS011;21084;51.098;14.506;2022-08-21T00:54:33;82.47;;;41.10;;
34872;SDS011;21084;51.098;14.506;2022-08-21T00:56:36;80.45;;;42.83;;
34872;SDS011;21084;51.098;14.506;2022-08-21T00:58:43;73.45;;;40.22;;
34872;SDS011;21084;51.098;14.506;2022-08-21T01:00:48;80.45;;;42.05;;
34872;SDS011;21084;51.098;14.506;2022-08-21T01:02:52;77.63;;;40.67;;
34872;SDS011;21084;51.098;14.506;2022-08-21T01:04:55;70.22;;;39.25;;
34872;SDS011;21084;51.098;14.506;2022-08-21T01:06:58;75.05;;;40.83;;
34872;SDS011;21084;51.098;14.506;2022-08-21T01:09:02;71.10;;;37.67;;
34872;SDS011;21084;51.098;14.506;2022-08-21T01:11:08;73.05;;;39.83;;
34872;SDS011;21084;51.098;14.506;2022-08-21T01:13:11;64.55;;;37.97;;
34872;SDS011;21084;51.098;14.506;2022-08-21T01:15:18;74.47;;;39.85;;
34872;SDS011;21084;51.098;14.506;2022-08-21T01:17:22;68.93;;;39.45;;
34872;SDS011;21084;51.098;14.506;2022-08-21T01:19:26;71.75;;;39.38;;
34872;SDS011;21084;51.098;14.506;2022-08-21T01:21:32;66.55;;;36.10;;
34872;SDS011;21084;51.098;14.506;2022-08-21T01:23:37;67.13;;;37.28;;
34872;SDS011;21084;51.098;14.506;2022-08-21T01:25:42;61.92;;;36.50;;
34872;SDS011;21084;51.098;14.506;2022-08-21T01:27:45;61.03;;;35.13;;
34872;SDS011;21084;51.098;14.506;2022-08-21T01:29:51;67.10;;;35.05;;
34872;SDS011;21084;51.098;14.506;2022-08-21T01:31:59;59.63;;;35.17;;
34872;SDS011;21084;51.098;14.506;2022-08-21T01:34:08;61.30;;;34.70;;
34872;SDS011;21084;51.098;14.506;2022-08-21T01:36:12;58.13;;;33.92;;
34872;SDS011;21084;51.098;14.506;2022-08-21T01:38:18;60.85;;;34.58;;
34872;SDS011;21084;51.098;14.506;2022-08-21T01:40:21;58.72;;;33.45;;
34872;SDS011;21084;51.098;14.506;2022-08-21T01:42:24;55.88;;;32.72;;
34872;SDS011;21084;51.098;14.506;2022-08-21T01:44:27;53.65;;;33.17;;
34872;SDS011;21084;51.098;14.506;2022-08-21T01:46:31;52.75;;;31.65;;
34872;SDS011;21084;51.098;14.506;2022-08-21T01:48:34;58.95;;;31.35;;
34872;SDS011;21084;51.098;14.506;2022-08-21T01:50:37;49.47;;;30.98;;
34872;SDS011;21084;51.098;14.506;2022-08-21T01:52:41;55.63;;;31.83;;
34872;SDS011;21084;51.098;14.506;2022-08-21T01:54:47;54.75;;;30.63;;
34872;SDS011;21084;51.098;14.506;2022-08-21T01:56:56;56.00;;;31.33;;
34872;SDS011;21084;51.098;14.506;2022-08-21T01:59:01;49.78;;;29.40;;
34872;SDS011;21084;51.098;14.506;2022-08-21T02:01:04;46.50;;;29.30;;
34872;SDS011;21084;51.098;14.506;2022-08-21T02:03:08;46.20;;;28.75;;
34872;SDS011;21084;51.098;14.506;2022-08-21T02:05:11;43.03;;;27.73;;
34872;SDS011;21084;51.098;14.506;2022-08-21T02:07:15;47.92;;;27.02;;
34872;SDS011;21084;51.098;14.506;2022-08-21T02:09:18;42.58;;;27.10;;
34872;SDS011;21084;51.098;14.506;2022-08-21T02:11:24;43.38;;;26.40;;
34872;SDS011;21084;51.098;14.506;2022-08-21T02:13:27;46.10;;;27.58;;
34872;SDS011;21084;51.098;14.506;2022-08-21T02:15:30;43.13;;;26.95;;
34872;SDS011;21084;51.098;14.506;2022-08-21T02:17:37;42.13;;;26.45;;
34872;SDS011;21084;51.098;14.506;2022-08-21T02:19:42;43.78;;;27.42;;
34872;SDS011;21084;51.098;14.506;2022-08-21T02:21:45;45.20;;;26.38;;
34872;SDS011;21084;51.098;14.506;2022-08-21T02:23:48;48.55;;;27.63;;
34872;SDS011;21084;51.098;14.506;2022-08-21T02:25:51;44.50;;;26.40;;
34872;SDS011;21084;51.098;14.506;2022-08-21T02:27:57;46.53;;;27.65;;
34872;SDS011;21084;51.098;14.506;2022-08-21T02:30:02;48.28;;;27.27;;
34872;SDS011;21084;51.098;14.506;2022-08-21T02:32:05;39.85;;;25.90;;
34872;SDS011;21084;51.098;14.506;2022-08-21T02:34:14;45.73;;;26.10;;
34872;SDS011;21084;51.098;14.506;2022-08-21T02:36:17;47.17;;;26.60;;
34872;SDS011;21084;51.098;14.506;2022-08-21T02:38:25;46.50;;;27.15;;
34872;SDS011;21084;51.098;14.506;2022-08-21T02:40:31;38.92;;;25.92;;
34872;SDS011;21084;51.098;14.506;2022-08-21T02:42:35;47.00;;;25.92;;
34872;SDS011;21084;51.098;14.506;2022-08-21T02:44:41;42.08;;;25.95;;
34872;SDS011;21084;51.098;14.506;2022-08-21T02:46:44;43.60;;;26.98;;
34872;SDS011;21084;51.098;14.506;2022-08-21T02:48:47;42.03;;;26.70;;
34872;SDS011;21084;51.098;14.506;2022-08-21T02:50:52;41.85;;;26.92;;
34872;SDS011;21084;51.098;14.506;2022-08-21T02:52:57;38.42;;;23.83;;
34872;SDS011;21084;51.098;14.506;2022-08-21T02:55:01;37.88;;;24.90;;
34872;SDS011;21084;51.098;14.506;2022-08-21T02:57:04;38.33;;;24.25;;
34872;SDS011;21084;51.098;14.506;2022-08-21T02:59:07;37.00;;;22.75;;
34872;SDS011;21084;51.098;14.506;2022-08-21T03:01:13;32.83;;;22.80;;
34872;SDS011;21084;51.098;14.506;2022-08-21T03:03:17;37.17;;;23.73;;
34872;SDS011;21084;51.098;14.506;2022-08-21T03:05:20;37.92;;;23.50;;
34872;SDS011;21084;51.098;14.506;2022-08-21T03:07:24;38.00;;;23.45;;
34872;SDS011;21084;51.098;14.506;2022-08-21T03:09:27;36.05;;;21.65;;
34872;SDS011;21084;51.098;14.506;2022-08-21T03:11:30;34.63;;;21.60;;
34872;SDS011;21084;51.098;14.506;2022-08-21T03:13:33;33.80;;;21.00;;
34872;SDS011;21084;51.098;14.506;2022-08-21T03:15:36;31.70;;;20.98;;
34872;SDS011;21084;51.098;14.506;2022-08-21T03:17:43;36.05;;;22.17;;
34872;SDS011;21084;51.098;14.506;2022-08-21T03:19:46;33.42;;;21.65;;
34872;SDS011;21084;51.098;14.506;2022-08-21T03:21:53;31.50;;;20.85;;
34872;SDS011;21084;51.098;14.506;2022-08-21T03:23:56;30.27;;;19.85;;
34872;SDS011;21084;51.098;14.506;2022-08-21T03:25:59;33.70;;;20.33;;
34872;SDS011;21084;51.098;14.506;2022-08-21T03:28:03;34.65;;;21.58;;
34872;SDS011;21084;51.098;14.506;2022-08-21T03:30:09;32.10;;;21.20;;
34872;SDS011;21084;51.098;14.506;2022-08-21T03:32:13;33.53;;;21.88;;
34872;SDS011;21084;51.098;14.506;2022-08-21T03:34:19;33.30;;;21.45;;
34872;SDS011;21084;51.098;14.506;2022-08-21T03:36:22;31.65;;;20.38;;
34872;SDS011;21084;51.098;14.506;2022-08-21T03:38:26;32.08;;;21.10;;
34872;SDS011;21084;51.098;14.506;2022-08-21T03:40:29;28.20;;;20.05;;
34872;SDS011;21084;51.098;14.506;2022-08-21T03:42:32;31.10;;;20.70;;
34872;SDS011;21084;51.098;14.506;2022-08-21T03:44:35;34.20;;;20.40;;
34872;SDS011;21084;51.098;14.506;2022-08-21T03:46:38;30.88;;;19.35;;
34872;SDS011;21084;51.098;14.506;2022-08-21T03:48:42;32.38;;;20.15;;
34872;SDS011;21084;51.098;14.506;2022-08-21T03:50:47;35.72;;;21.45;;
34872;SDS011;21084;51.098;14.506;2022-08-21T03:52:50;29.75;;;20.08;;
34872;SDS011;21084;51.098;14.506;2022-08-21T03:54:54;34.00;;;21.20;;
34872;SDS011;21084;51.098;14.506;2022-08-21T03:56:57;33.63;;;21.52;;
34872;SDS011;21084;51.098;14.506;2022-08-21T03:59:00;38.30;;;22.95;;
34872;SDS011;21084;51.098;14.506;2022-08-21T04:01:04;39.13;;;21.45;;
34872;SDS011;21084;51.098;14.506;2022-08-21T04:03:08;36.47;;;22.25;;
34872;SDS011;21084;51.098;14.506;2022-08-21T04:05:11;33.20;;;21.77;;
34872;SDS011;21084;51.098;14.506;2022-08-21T04:07:18;38.03;;;22.00;;
34872;SDS011;21084;51.098;14.506;2022-08-21T04:09:22;36.33;;;21.35;;
34872;SDS011;21084;51.098;14.506;2022-08-21T04:11:25;38.88;;;22.58;;
34872;SDS011;21084;51.098;14.506;2022-08-21T04:13:28;35.85;;;22.63;;
34872;SDS011;21084;51.098;14.506;2022-08-21T04:15:31;38.67;;;23.38;;
34872;SDS011;21084;51.098;14.506;2022-08-21T04:17:35;38.95;;;23.20;;
34872;SDS011;21084;51.098;14.506;2022-08-21T04:19:38;36.55;;;21.77;;
34872;SDS011;21084;51.098;14.506;2022-08-21T04:21:41;37.85;;;21.70;;
34872;SDS011;21084;51.098;14.506;2022-08-21T04:23:47;34.33;;;20.10;;
34872;SDS011;21084;51.098;14.506;2022-08-21T04:25:51;32.75;;;20.13;;
34872;SDS011;21084;51.098;14.506;2022-08-21T04:27:55;33.55;;;19.75;;
34872;SDS011;21084;51.098;14.506;2022-08-21T04:29:58;36.70;;;21.15;;
34872;SDS011;21084;51.098;14.506;2022-08-21T04:32:01;29.33;;;18.85;;
34872;SDS011;21084;51.098;14.506;2022-08-21T04:34:05;33.88;;;19.63;;
34872;SDS011;21084;51.098;14.506;2022-08-21T04:36:08;28.30;;;18.95;;
34872;SDS011;21084;51.098;14.506;2022-08-21T04:38:11;27.55;;;18.70;;
34872;SDS011;21084;51.098;14.506;2022-08-21T04:40:18;30.60;;;18.50;;
34872;SDS011;21084;51.098;14.506;2022-08-21T04:42:22;28.88;;;19.27;;
34872;SDS011;21084;51.098;14.506;2022-08-21T04:44:25;30.45;;;18.48;;
34872;SDS011;21084;51.098;14.506;2022-08-21T04:46:28;28.98;;;18.80;;
34872;SDS011;21084;51.098;14.506;2022-08-21T04:48:32;27.58;;;17.02;;
34872;SDS011;21084;51.098;14.506;2022-08-21T04:50:36;34.03;;;19.58;;
34872;SDS011;21084;51.098;14.506;2022-08-21T04:52:43;27.65;;;17.63;;
34872;SDS011;21084;51.098;14.506;2022-08-21T04:54:47;29.35;;;19.20;;
34872;SDS011;21084;51.098;14.506;2022-08-21T04:56:59;27.83;;;18.95;;
34872;SDS011;21084;51.098;14.506;2022-08-21T04:59:07;31.15;;;19.70;;
34872;SDS011;21084;51.098;14.506;2022-08-21T05:01:16;27.85;;;18.73;;
34872;SDS011;21084;51.098;14.506;2022-08-21T05:03:21;28.05;;;19.75;;
34872;SDS011;21084;51.098;14.506;2022-08-21T05:05:25;30.17;;;21.35;;
34872;SDS011;21084;51.098;14.506;2022-08-21T05:07:30;32.90;;;21.65;;
34872;SDS011;21084;51.098;14.506;2022-08-21T05:09:44;31.15;;;20.63;;
34872;SDS011;21084;51.098;14.506;2022-08-21T05:11:47;28.67;;;21.48;;
34872;SDS011;21084;51.098;14.506;2022-08-21T05:13:53;31.02;;;21.08;;
34872;SDS011;21084;51.098;14.506;2022-08-21T05:15:58;29.08;;;20.50;;
34872;SDS011;21084;51.098;14.506;2022-08-21T05:18:01;32.22;;;22.02;;
34872;SDS011;21084;51.098;14.506;2022-08-21T05:20:05;29.58;;;20.35;;
34872;SDS011;21084;51.098;14.506;2022-08-21T05:22:08;32.08;;;21.48;;
34872;SDS011;21084;51.098;14.506;2022-08-21T05:24:12;32.90;;;22.23;;
34872;SDS011;21084;51.098;14.506;2022-08-21T05:26:15;32.28;;;21.08;;
34872;SDS011;21084;51.098;14.506;2022-08-21T05:28:20;30.17;;;19.70;;
34872;SDS011;21084;51.098;14.506;2022-08-21T05:30:25;29.65;;;19.58;;
34872;SDS011;21084;51.098;14.506;2022-08-21T05:32:28;30.25;;;20.15;;
34872;SDS011;21084;51.098;14.506;2022-08-21T05:34:31;28.67;;;19.58;;
34872;SDS011;21084;51.098;14.506;2022-08-21T05:36:35;36.35;;;23.35;;
34872;SDS011;21084;51.098;14.506;2022-08-21T05:38:38;30.48;;;19.75;;
34872;SDS011;21084;51.098;14.506;2022-08-21T05:40:41;27.98;;;18.95;;
34872;SDS011;21084;51.098;14.506;2022-08-21T05:42:44;28.77;;;18.33;;
34872;SDS011;21084;51.098;14.506;2022-08-21T05:44:56;24.05;;;17.90;;
34872;SDS011;21084;51.098;14.506;2022-08-21T05:47:05;24.25;;;17.10;;
34872;SDS011;21084;51.098;14.506;2022-08-21T05:49:10;27.80;;;18.55;;
34872;SDS011;21084;51.098;14.506;2022-08-21T05:51:14;27.30;;;18.20;;
34872;SDS011;21084;51.098;14.506;2022-08-21T05:53:18;28.90;;;18.25;;
34872;SDS011;21084;51.098;14.506;2022-08-21T05:55:22;27.23;;;17.55;;
34872;SDS011;21084;51.098;14.506;2022-08-21T05:57:25;21.50;;;15.82;;
34872;SDS011;21084;51.098;14.506;2022-08-21T05:59:29;27.55;;;18.63;;
34872;SDS011;21084;51.098;14.506;2022-08-21T06:01:32;25.95;;;17.35;;
34872;SDS011;21084;51.098;14.506;2022-08-21T06:03:38;28.20;;;18.77;;
34872;SDS011;21084;51.098;14.506;2022-08-21T06:05:43;25.13;;;17.77;;
34872;SDS011;21084;51.098;14.506;2022-08-21T06:07:46;24.77;;;18.20;;
34872;SDS011;21084;51.098;14.506;2022-08-21T06:09:49;26.88;;;17.63;;
34872;SDS011;21084;51.098;14.506;2022-08-21T06:11:52;26.17;;;17.40;;
34872;SDS011;21084;51.098;14.506;2022-08-21T06:13:56;21.63;;;14.93;;
34872;SDS011;21084;51.098;14.506;2022-08-21T06:16:03;20.33;;;14.13;;
34872;SDS011;21084;51.098;14.506;2022-08-21T06:18:08;20.92;;;14.98;;
34872;SDS011;21084;51.098;14.506;2022-08-21T06:20:14;19.50;;;13.25;;
34872;SDS011;21084;51.098;14.506;2022-08-21T06:22:18;19.83;;;12.13;;
34872;SDS011;21084;51.098;14.506;2022-08-21T06:24:21;18.20;;;11.35;;
34872;SDS011;21084;51.098;14.506;2022-08-21T06:26:24;17.58;;;10.57;;
34872;SDS011;21084;51.098;14.506;2022-08-21T06:28:27;17.05;;;9.80;;
34872;SDS011;21084;51.098;14.506;2022-08-21T06:30:30;15.18;;;9.30;;
34872;SDS011;21084;51.098;14.506;2022-08-21T06:32:34;14.48;;;9.65;;
34872;SDS011;21084;51.098;14.506;2022-08-21T06:34:38;16.05;;;9.85;;
34872;SDS011;21084;51.098;14.506;2022-08-21T06:36:44;18.30;;;9.93;;
34872;SDS011;21084;51.098;14.506;2022-08-21T06:38:47;18.02;;;10.32;;
34872;SDS011;21084;51.098;14.506;2022-08-21T06:40:53;19.05;;;11.52;;
34872;SDS011;21084;51.098;14.506;2022-08-21T06:42:56;15.15;;;9.73;;
34872;SDS011;21084;51.098;14.506;2022-08-21T06:45:00;11.35;;;9.02;;
34872;SDS011;21084;51.098;14.506;2022-08-21T06:47:03;20.45;;;9.90;;
34872;SDS011;21084;51.098;14.506;2022-08-21T06:49:06;13.43;;;7.80;;
34872;SDS011;21084;51.098;14.506;2022-08-21T06:51:18;14.43;;;8.00;;
34872;SDS011;21084;51.098;14.506;2022-08-21T06:53:24;14.57;;;9.38;;
34872;SDS011;21084;51.098;14.506;2022-08-21T06:55:28;14.15;;;7.72;;
34872;SDS011;21084;51.098;14.506;2022-08-21T06:57:32;16.70;;;8.02;;
34872;SDS011;21084;51.098;14.506;2022-08-21T06:59:38;17.10;;;9.73;;
34872;SDS011;21084;51.098;14.506;2022-08-21T07:01:40;17.75;;;9.63;;
34872;SDS011;21084;51.098;14.506;2022-08-21T07:03:43;15.43;;;8.68;;
34872;SDS011;21084;51.098;14.506;2022-08-21T07:05:47;17.30;;;9.57;;
34872;SDS011;21084;51.098;14.506;2022-08-21T07:08:05;15.15;;;9.40;;
34872;SDS011;21084;51.098;14.506;2022-08-21T07:10:25;16.73;;;9.45;;
34872;SDS011;21084;51.098;14.506;2022-08-21T07:12:42;14.57;;;8.77;;
34872;SDS011;21084;51.098;14.506;2022-08-21T07:14:45;14.65;;;8.65;;
34872;SDS011;21084;51.098;14.506;2022-08-21T07:16:48;14.93;;;9.45;;
34872;SDS011;21084;51.098;14.506;2022-08-21T07:18:51;13.07;;;9.27;;
34872;SDS011;21084;51.098;14.506;2022-08-21T07:20:54;16.23;;;8.98;;
34872;SDS011;21084;51.098;14.506;2022-08-21T07:22:59;18.55;;;8.05;;
34872;SDS011;21084;51.098;14.506;2022-08-21T07:25:04;17.27;;;8.10;;
34872;SDS011;21084;51.098;14.506;2022-08-21T07:27:10;12.30;;;7.80;;
34872;SDS011;21084;51.098;14.506;2022-08-21T07:29:15;15.60;;;8.23;;
34872;SDS011;21084;51.098;14.506;2022-08-21T07:31:23;13.57;;;7.20;;
34872;SDS011;21084;51.098;14.506;2022-08-21T07:33:28;14.07;;;7.15;;
34872;SDS011;21084;51.098;14.506;2022-08-21T07:35:33;14.45;;;7.20;;
34872;SDS011;21084;51.098;14.506;2022-08-21T07:37:36;12.23;;;6.63;;
34872;SDS011;21084;51.098;14.506;2022-08-21T07:39:40;11.00;;;6.65;;
34872;SDS011;21084;51.098;14.506;2022-08-21T07:41:44;15.05;;;6.68;;
34872;SDS011;21084;51.098;14.506;2022-08-21T07:43:50;12.90;;;7.00;;
34872;SDS011;21084;51.098;14.506;2022-08-21T07:45:54;17.88;;;7.00;;
34872;SDS011;21084;51.098;14.506;2022-08-21T07:47:57;15.45;;;7.10;;
34872;SDS011;21084;51.098;14.506;2022-08-21T07:50:00;10.38;;;6.72;;
34872;SDS011;21084;51.098;14.506;2022-08-21T07:52:06;13.18;;;6.93;;
34872;SDS011;21084;51.098;14.506;2022-08-21T07:54:10;12.95;;;7.65;;
34872;SDS011;21084;51.098;14.506;2022-08-21T07:56:18;13.38;;;7.05;;
34872;SDS011;21084;51.098;14.506;2022-08-21T07:58:22;15.32;;;6.95;;
34872;SDS011;21084;51.098;14.506;2022-08-21T08:00:28;11.13;;;6.93;;
34872;SDS011;21084;51.098;14.506;2022-08-21T08:02:32;12.15;;;7.18;;
34872;SDS011;21084;51.098;14.506;2022-08-21T08:04:35;15.98;;;7.47;;
34872;SDS011;21084;51.098;14.506;2022-08-21T08:06:51;20.05;;;7.95;;
34872;SDS011;21084;51.098;14.506;2022-08-21T08:08:55;13.52;;;7.57;;
34872;SDS011;21084;51.098;14.506;2022-08-21T08:10:58;12.30;;;7.28;;
34872;SDS011;21084;51.098;14.506;2022-08-21T08:13:01;12.75;;;7.38;;
34872;SDS011;21084;51.098;14.506;2022-08-21T08:15:05;12.38;;;8.45;;
34872;SDS011;21084;51.098;14.506;2022-08-21T08:17:14;12.70;;;8.20;;
34872;SDS011;21084;51.098;14.506;2022-08-21T08:19:17;17.42;;;8.93;;
34872;SDS011;21084;51.098;14.506;2022-08-21T08:21:21;13.23;;;8.55;;
34872;SDS011;21084;51.098;14.506;2022-08-21T08:23:27;14.25;;;8.77;;
34872;SDS011;21084;51.098;14.506;2022-08-21T08:25:30;13.10;;;9.80;;
34872;SDS011;21084;51.098;14.506;2022-08-21T08:27:39;14.80;;;9.50;;
34872;SDS011;21084;51.098;14.506;2022-08-21T08:29:45;14.88;;;10.20;;
34872;SDS011;21084;51.098;14.506;2022-08-21T08:31:48;16.13;;;9.00;;
34872;SDS011;21084;51.098;14.506;2022-08-21T08:33:55;14.32;;;8.73;;
34872;SDS011;21084;51.098;14.506;2022-08-21T08:35:58;14.20;;;8.80;;
34872;SDS011;21084;51.098;14.506;2022-08-21T08:38:09;13.90;;;8.77;;
34872;SDS011;21084;51.098;14.506;2022-08-21T08:40:13;15.70;;;8.48;;
34872;SDS011;21084;51.098;14.506;2022-08-21T08:42:22;15.43;;;8.70;;
34872;SDS011;21084;51.098;14.506;2022-08-21T08:44:35;16.95;;;9.45;;
34872;SDS011;21084;51.098;14.506;2022-08-21T08:46:40;14.15;;;9.02;;
34872;SDS011;21084;51.098;14.506;2022-08-21T08:48:48;14.95;;;9.50;;
34872;SDS011;21084;51.098;14.506;2022-08-21T08:50:57;12.55;;;8.27;;
34872;SDS011;21084;51.098;14.506;2022-08-21T08:53:06;15.07;;;9.23;;
34872;SDS011;21084;51.098;14.506;2022-08-21T08:55:14;13.15;;;7.78;;
34872;SDS011;21084;51.098;14.506;2022-08-21T08:57:20;13.23;;;8.38;;
34872;SDS011;21084;51.098;14.506;2022-08-21T08:59:26;12.70;;;7.97;;
34872;SDS011;21084;51.098;14.506;2022-08-21T09:01:32;13.85;;;6.60;;
34872;SDS011;21084;51.098;14.506;2022-08-21T09:03:40;14.55;;;8.15;;
34872;SDS011;21084;51.098;14.506;2022-08-21T09:05:45;16.13;;;8.27;;
34872;SDS011;21084;51.098;14.506;2022-08-21T09:10:22;16.05;;;8.45;;
34872;SDS011;21084;51.098;14.506;2022-08-21T09:12:36;16.20;;;8.38;;
34872;SDS011;21084;51.098;14.506;2022-08-21T09:14:52;14.32;;;8.65;;
34872;SDS011;21084;51.098;14.506;2022-08-21T09:17:11;12.98;;;8.60;;
34872;SDS011;21084;51.098;14.506;2022-08-21T09:19:33;16.75;;;8.20;;
34872;SDS011;21084;51.098;14.506;2022-08-21T09:21:49;13.48;;;7.63;;
34872;SDS011;21084;51.098;14.506;2022-08-21T09:24:02;13.05;;;8.05;;
34872;SDS011;21084;51.098;14.506;2022-08-21T09:26:21;13.15;;;7.68;;
34872;SDS011;21084;51.098;14.506;2022-08-21T09:28:26;12.20;;;7.55;;
34872;SDS011;21084;51.098;14.506;2022-08-21T09:30:34;13.27;;;6.40;;
34872;SDS011;21084;51.098;14.506;2022-08-21T09:32:38;13.50;;;7.32;;
34872;SDS011;21084;51.098;14.506;2022-08-21T09:34:41;12.70;;;6.68;;
34872;SDS011;21084;51.098;14.506;2022-08-21T09:36:45;10.60;;;7.50;;
34872;SDS011;21084;51.098;14.506;2022-08-21T09:38:53;13.27;;;7.10;;
34872;SDS011;21084;51.098;14.506;2022-08-21T09:41:00;12.95;;;6.00;;
34872;SDS011;21084;51.098;14.506;2022-08-21T09:43:05;10.00;;;5.72;;
34872;SDS011;21084;51.098;14.506;2022-08-21T09:45:18;13.82;;;6.25;;
34872;SDS011;21084;51.098;14.506;2022-08-21T09:47:21;11.57;;;5.57;;
34872;SDS011;21084;51.098;14.506;2022-08-21T09:49:29;12.73;;;5.80;;
34872;SDS011;21084;51.098;14.506;2022-08-21T09:51:35;8.18;;;5.35;;
34872;SDS011;21084;51.098;14.506;2022-08-21T09:53:40;12.55;;;6.57;;
34872;SDS011;21084;51.098;14.506;2022-08-21T09:55:48;9.85;;;6.50;;
34872;SDS011;21084;51.098;14.506;2022-08-21T09:57:56;12.38;;;6.55;;
34872;SDS011;21084;51.098;14.506;2022-08-21T10:00:07;10.68;;;5.93;;
34872;SDS011;21084;51.098;14.506;2022-08-21T10:04:37;10.73;;;6.07;;
34872;SDS011;21084;51.098;14.506;2022-08-21T10:06:40;10.27;;;6.75;;
34872;SDS011;21084;51.098;14.506;2022-08-21T10:08:43;11.35;;;6.47;;
34872;SDS011;21084;51.098;14.506;2022-08-21T10:10:50;14.25;;;6.57;;
34872;SDS011;21084;51.098;14.506;2022-08-21T10:13:02;10.88;;;6.07;;
34872;SDS011;21084;51.098;14.506;2022-08-21T10:15:16;10.15;;;5.90;;
34872;SDS011;21084;51.098;14.506;2022-08-21T10:17:26;10.38;;;5.70;;
34872;SDS011;21084;51.098;14.506;2022-08-21T10:19:35;7.90;;;5.40;;
34872;SDS011;21084;51.098;14.506;2022-08-21T10:21:46;10.55;;;5.88;;
34872;SDS011;21084;51.098;14.506;2022-08-21T10:24:03;10.82;;;5.72;;
34872;SDS011;21084;51.098;14.506;2022-08-21T10:26:37;14.05;;;5.93;;
34872;SDS011;21084;51.098;14.506;2022-08-21T10:28:51;9.63;;;5.15;;
34872;SDS011;21084;51.098;14.506;2022-08-21T10:31:04;8.38;;;4.65;;
34872;SDS011;21084;51.098;14.506;2022-08-21T10:33:16;10.43;;;4.90;;
34872;SDS011;21084;51.098;14.506;2022-08-21T10:35:29;6.90;;;4.28;;
34872;SDS011;21084;51.098;14.506;2022-08-21T10:37:38;9.98;;;4.88;;
34872;SDS011;21084;51.098;14.506;2022-08-21T10:39:53;7.82;;;4.30;;
34872;SDS011;21084;51.098;14.506;2022-08-21T10:42:12;8.85;;;3.95;;
34872;SDS011;21084;51.098;14.506;2022-08-21T10:44:37;6.63;;;2.78;;
34872;SDS011;21084;51.098;14.506;2022-08-21T10:46:47;5.70;;;2.92;;
34872;SDS011;21084;51.098;14.506;2022-08-21T10:48:56;13.20;;;3.95;;
34872;SDS011;21084;51.098;14.506;2022-08-21T10:51:04;7.72;;;3.20;;
34872;SDS011;21084;51.098;14.506;2022-08-21T10:55:21;5.43;;;2.80;;
34872;SDS011;21084;51.098;14.506;2022-08-21T10:57:30;7.53;;;3.13;;
34872;SDS011;21084;51.098;14.506;2022-08-21T10:59:46;6.00;;;2.92;;
34872;SDS011;21084;51.098;14.506;2022-08-21T11:01:56;7.15;;;3.25;;
34872;SDS011;21084;51.098;14.506;2022-08-21T11:04:07;9.55;;;3.42;;
34872;SDS011;21084;51.098;14.506;2022-08-21T11:06:15;5.30;;;3.00;;
34872;SDS011;21084;51.098;14.506;2022-08-21T11:08:22;9.68;;;3.60;;
34872;SDS011;21084;51.098;14.506;2022-08-21T11:10:32;10.53;;;3.53;;
34872;SDS011;21084;51.098;14.506;2022-08-21T11:13:06;6.95;;;3.50;;
34872;SDS011;21084;51.098;14.506;2022-08-21T11:15:22;4.80;;;2.97;;
34872;SDS011;21084;51.098;14.506;2022-08-21T11:17:32;5.93;;;3.10;;
34872;SDS011;21084;51.098;14.506;2022-08-21T11:19:42;8.27;;;3.05;;
34872;SDS011;21084;51.098;14.506;2022-08-21T11:21:52;6.47;;;2.97;;
34872;SDS011;21084;51.098;14.506;2022-08-21T11:24:02;8.40;;;2.83;;
34872;SDS011;21084;51.098;14.506;2022-08-21T11:26:18;5.88;;;3.10;;
34872;SDS011;21084;51.098;14.506;2022-08-21T11:28:33;6.78;;;3.30;;
34872;SDS011;21084;51.098;14.506;2022-08-21T11:33:01;5.85;;;3.40;;
34872;SDS011;21084;51.098;14.506;2022-08-21T11:35:15;7.82;;;3.47;;
34872;SDS011;21084;51.098;14.506;2022-08-21T11:37:26;8.27;;;3.47;;
34872;SDS011;21084;51.098;14.506;2022-08-21T11:39:43;5.70;;;2.80;;
34872;SDS011;21084;51.098;14.506;2022-08-21T11:41:54;7.00;;;3.10;;
34872;SDS011;21084;51.098;14.506;2022-08-21T11:44:04;7.07;;;2.90;;
34872;SDS011;21084;51.098;14.506;2022-08-21T11:46:20;7.70;;;2.90;;
34872;SDS011;21084;51.098;14.506;2022-08-21T11:48:33;8.15;;;3.00;;
34872;SDS011;21084;51.098;14.506;2022-08-21T11:50:42;6.15;;;3.03;;
34872;SDS011;21084;51.098;14.506;2022-08-21T11:52:48;7.30;;;2.88;;
34872;SDS011;21084;51.098;14.506;2022-08-21T11:54:57;5.82;;;2.70;;
34872;SDS011;21084;51.098;14.506;2022-08-21T11:57:04;8.82;;;3.20;;
34872;SDS011;21084;51.098;14.506;2022-08-21T11:59:11;6.97;;;2.92;;
34872;SDS011;21084;51.098;14.506;2022-08-21T12:01:21;5.93;;;2.38;;
34872;SDS011;21084;51.098;14.506;2022-08-21T12:03:27;6.38;;;2.38;;
34872;SDS011;21084;51.098;14.506;2022-08-21T12:05:33;9.05;;;2.80;;
34872;SDS011;21084;51.098;14.506;2022-08-21T12:07:40;9.73;;;2.28;;
34872;SDS011;21084;51.098;14.506;2022-08-21T12:09:51;5.93;;;2.35;;
34872;SDS011;21084;51.098;14.506;2022-08-21T12:12:00;5.28;;;2.20;;
34872;SDS011;21084;51.098;14.506;2022-08-21T12:14:11;5.50;;;2.30;;
34872;SDS011;21084;51.098;14.506;2022-08-21T12:16:27;4.68;;;2.08;;
34872;SDS011;21084;51.098;14.506;2022-08-21T12:18:35;7.10;;;2.20;;
34872;SDS011;21084;51.098;14.506;2022-08-21T12:20:40;6.15;;;2.03;;
34872;SDS011;21084;51.098;14.506;2022-08-21T12:22:54;5.85;;;2.47;;